Time;durP1;ratioP1;P1;durP2;ratioP2;P2;SDS_P1;SDS_P2;PMS_P1;PMS_P2;Temp;Humidity;BMP_temperature;BMP_pressure;BME280_temperature;BME280_humidity;BME280_pressure;Samples;Min_cycle;Max_cycle;Signal;HPM_P1;HPM_P2
2024/01/04 00:01:12;;;;;;;11.68;2.00;;;;;;;-144.73;100.00;54732.00;5030175;28;20028;-77
2024/01/04 00:03:37;;;;;;;12.45;2.58;;;;;;;-144.73;100.00;54764.84;5028802;28;20025;-74
2024/01/04 00:06:03;;;;;;;12.23;3.70;;;;;;;-144.73;100.00;54715.59;5024531;28;20022;-74
2024/01/04 00:08:28;;;;;;;9.40;2.60;;;;;;;-144.73;100.00;54723.81;5029745;28;20037;-74
2024/01/04 00:10:54;;;;;;;7.82;1.85;;;;;;;-144.73;100.00;54740.22;5030751;28;20082;-75
2024/01/04 00:13:22;;;;;;;8.57;2.35;;;;;;;-144.73;100.00;54719.69;5028458;28;20030;-75
2024/01/04 00:15:47;;;;;;;6.35;2.72;;;;;;;-144.73;100.00;54764.84;5030862;28;20021;-75
2024/01/04 00:18:13;;;;;;;17.83;2.30;;;;;;;-144.73;100.00;54721.75;5025387;28;20161;-76
2024/01/04 00:20:38;;;;;;;8.05;2.13;;;;;;;-144.73;100.00;54740.22;5029132;28;20038;-76
2024/01/04 00:23:04;;;;;;;7.60;1.90;;;;;;;-144.73;100.00;54727.91;5029774;28;20037;-77
2024/01/04 00:25:29;;;;;;;7.88;1.98;;;;;;;-144.73;100.00;54711.47;5030403;28;20029;-76
2024/01/04 00:27:54;;;;;;;5.30;2.10;;;;;;;-144.73;100.00;54760.75;5030219;28;20049;-75
2024/01/04 00:30:20;;;;;;;6.05;2.50;;;;;;;-144.73;100.00;54744.31;5030569;28;20030;-76
2024/01/04 00:32:45;;;;;;;7.55;2.15;;;;;;;-144.73;100.00;54764.84;5029545;28;20033;-76
2024/01/04 00:35:11;;;;;;;8.80;1.80;;;;;;;-144.73;100.00;54764.84;5029326;28;20068;-76
2024/01/04 00:37:36;;;;;;;10.02;2.03;;;;;;;-144.73;100.00;54764.84;5026389;28;20472;-75
2024/01/04 00:40:01;;;;;;;11.02;2.05;;;;;;;-144.73;100.00;54752.53;5030402;28;20017;-75
2024/01/04 00:42:27;;;;;;;7.78;2.42;;;;;;;-144.73;100.00;54721.75;5030003;28;20029;-75
2024/01/04 00:44:52;;;;;;;6.95;1.70;;;;;;;-144.73;100.00;54744.31;5030081;28;20037;-74
2024/01/04 00:47:17;;;;;;;13.23;1.63;;;;;;;-144.73;100.00;54752.53;5030434;28;20029;-77
2024/01/04 00:49:43;;;;;;;10.95;3.05;;;;;;;-144.73;100.00;54768.97;5029856;28;20112;-76
2024/01/04 00:52:08;;;;;;;8.57;1.83;;;;;;;-144.73;100.00;54740.22;5030152;28;20017;-75
2024/01/04 00:54:33;;;;;;;9.50;1.77;;;;;;;-144.73;100.00;54715.59;5046279;28;20076;-77
2024/01/04 00:56:59;;;;;;;6.57;1.52;;;;;;;-144.73;100.00;54752.53;5028362;28;20083;-76
2024/01/04 00:59:24;;;;;;;5.50;1.50;;;;;;;-144.73;100.00;54740.22;5029328;28;20053;-75
2024/01/04 01:01:50;;;;;;;8.40;1.70;;;;;;;-144.73;100.00;54768.97;5029727;28;20022;-76
2024/01/04 01:04:15;;;;;;;11.10;1.63;;;;;;;-144.73;100.00;54768.97;5029832;28;20110;-75
2024/01/04 01:06:43;;;;;;;6.22;1.15;;;;;;;-144.73;100.00;54762.81;5029922;28;20025;-74
2024/01/04 01:09:08;;;;;;;11.77;1.60;;;;;;;-144.73;100.00;54703.28;5029367;28;20175;-75
2024/01/04 01:11:33;;;;;;;9.35;1.17;;;;;;;-144.73;100.00;54748.44;5027553;28;20045;-75
2024/01/04 01:13:59;;;;;;;4.50;0.93;;;;;;;-144.73;100.00;54764.84;5029757;28;20037;-75
2024/01/04 01:16:25;;;;;;;5.55;1.33;;;;;;;-144.73;100.00;54740.22;5030446;28;20100;-74
2024/01/04 01:18:50;;;;;;;3.47;0.70;;;;;;;-144.73;100.00;54711.47;5026703;28;20091;-75
2024/01/04 01:21:15;;;;;;;5.90;1.40;;;;;;;-144.73;100.00;54723.81;5030226;28;20076;-75
2024/01/04 01:23:41;;;;;;;6.55;0.65;;;;;;;-144.73;100.00;54727.91;5029202;28;20035;-74
2024/01/04 01:26:07;;;;;;;4.80;0.73;;;;;;;-144.73;100.00;54707.38;5023776;28;20500;-76
2024/01/04 01:28:33;;;;;;;7.07;0.70;;;;;;;-144.73;100.00;54723.81;5027547;28;20057;-75
2024/01/04 01:31:01;;;;;;;1.90;0.57;;;;;;;-144.73;100.00;54732.00;5030002;28;20064;-74
2024/01/04 01:33:27;;;;;;;1.13;0.40;;;;;;;-144.73;100.00;54736.13;5029170;28;20041;-74
2024/01/04 01:35:52;;;;;;;3.05;0.70;;;;;;;-144.73;100.00;54746.38;5031925;28;20048;-75
2024/01/04 01:38:18;;;;;;;1.98;0.65;;;;;;;-144.73;100.00;54736.13;5031503;28;20073;-74
2024/01/04 01:40:43;;;;;;;5.68;1.08;;;;;;;-144.73;100.00;54732.00;5033737;28;20025;-75
2024/01/04 01:43:11;;;;;;;5.18;1.42;;;;;;;-144.73;100.00;54732.00;5029951;28;20030;-74
2024/01/04 01:45:36;;;;;;;3.78;1.33;;;;;;;-144.73;100.00;54715.59;5031802;28;20033;-75
2024/01/04 01:48:02;;;;;;;4.65;1.35;;;;;;;-144.73;100.00;54711.47;5033239;28;20037;-75
2024/01/04 01:50:28;;;;;;;2.60;0.98;;;;;;;-144.73;100.00;54707.38;5033460;28;20034;-75
2024/01/04 01:52:54;;;;;;;4.30;1.10;;;;;;;-144.73;100.00;54678.63;5032726;28;20224;-75
2024/01/04 01:55:20;;;;;;;4.45;1.05;;;;;;;-144.73;100.00;54727.91;5033511;28;20148;-76
2024/01/04 01:57:45;;;;;;;10.35;1.05;;;;;;;-144.73;100.00;54699.16;5028285;28;20021;-75
2024/01/04 02:00:13;;;;;;;3.95;1.05;;;;;;;-144.73;100.00;54783.31;5030845;28;20022;-75
2024/01/04 02:02:38;;;;;;;8.23;1.17;;;;;;;-144.73;100.00;54732.00;5030884;28;20026;-75
2024/01/04 02:05:04;;;;;;;4.32;0.80;;;;;;;-144.73;100.00;54723.81;5033337;28;20037;-76
2024/01/04 02:07:30;;;;;;;8.63;1.40;;;;;;;-144.73;100.00;54719.69;5032596;28;20499;-74
2024/01/04 02:09:55;;;;;;;4.65;1.65;;;;;;;-144.73;100.00;54715.59;5031163;28;20499;-74
2024/01/04 02:12:22;;;;;;;1.98;0.75;;;;;;;-144.73;100.00;54723.81;5031675;28;20145;-75
2024/01/04 02:14:54;;;;;;;10.25;1.58;;;;;;;-144.73;100.00;54744.31;5049222;28;20124;-74
2024/01/04 02:17:20;;;;;;;4.68;1.10;;;;;;;-144.73;100.00;54711.47;5031171;28;20029;-76
2024/01/04 02:19:46;;;;;;;3.75;1.00;;;;;;;-144.73;100.00;54719.69;5028934;28;20029;-75
2024/01/04 02:22:12;;;;;;;6.05;1.27;;;;;;;-144.73;100.00;54738.16;5032382;28;20022;-75
2024/01/04 02:24:37;;;;;;;5.38;0.90;;;;;;;-144.73;100.00;54756.66;5032685;28;20049;-74
2024/01/04 02:27:03;;;;;;;2.20;0.65;;;;;;;-144.73;100.00;54715.59;5033165;28;20032;-75
2024/01/04 02:29:31;;;;;;;6.38;0.80;;;;;;;-144.73;100.00;54748.44;5031822;28;20044;-75
2024/01/04 02:31:56;;;;;;;4.13;1.05;;;;;;;-144.73;100.00;54723.81;5027380;28;20060;-75
2024/01/04 02:34:25;;;;;;;2.05;1.10;;;;;;;-144.73;100.00;54707.38;5012904;28;20083;-75
2024/01/04 02:36:50;;;;;;;2.10;1.15;;;;;;;-144.73;100.00;54723.81;5022138;28;20026;-75
2024/01/04 02:39:15;;;;;;;5.93;1.00;;;;;;;-144.73;100.00;54695.06;5013130;28;20056;-75
2024/01/04 02:41:41;;;;;;;6.63;1.25;;;;;;;-144.73;100.00;54723.81;5017224;28;20029;-74
2024/01/04 02:44:07;;;;;;;9.50;1.33;;;;;;;-144.73;100.00;54781.28;5028799;28;20123;-75
2024/01/04 02:46:38;;;;;;;9.27;1.35;;;;;;;-144.73;100.00;54723.81;5048517;28;20381;-74
2024/01/04 02:49:03;;;;;;;2.70;1.00;;;;;;;-144.73;100.00;54727.91;5030725;28;20108;-76
2024/01/04 02:51:29;;;;;;;3.30;1.27;;;;;;;-144.73;100.00;54768.97;5032015;28;20018;-74
2024/01/04 02:53:54;;;;;;;7.20;1.35;;;;;;;-144.73;100.00;54732.00;5029052;28;20060;-76
2024/01/04 02:56:19;;;;;;;4.32;1.17;;;;;;;-144.73;100.00;54703.28;5029566;28;20104;-75
2024/01/04 02:58:45;;;;;;;12.18;1.60;;;;;;;-144.73;100.00;54699.16;5031204;28;20079;-75
2024/01/04 03:01:11;;;;;;;3.22;1.05;;;;;;;-144.73;100.00;54756.66;5032153;28;20036;-75
2024/01/04 03:03:37;;;;;;;8.00;1.65;;;;;;;-144.73;100.00;54742.28;5031360;28;20034;-75
2024/01/04 03:06:02;;;;;;;8.77;1.58;;;;;;;-144.73;100.00;54715.59;5032369;28;20087;-74
2024/01/04 03:08:27;;;;;;;7.55;1.90;;;;;;;-144.73;100.00;54713.53;5047484;28;20033;-75
2024/01/04 03:10:53;;;;;;;5.10;1.20;;;;;;;-144.73;100.00;54707.38;5032306;28;20021;-75
2024/01/04 03:13:18;;;;;;;5.35;1.10;;;;;;;-144.73;100.00;54699.16;5016544;28;20169;-75
2024/01/04 03:15:44;;;;;;;4.38;1.40;;;;;;;-144.73;100.00;54682.75;5012831;28;20103;-75
2024/01/04 03:18:09;;;;;;;1.48;0.93;;;;;;;-144.73;100.00;54707.38;5011888;28;20529;-75
2024/01/04 03:20:37;;;;;;;7.20;1.00;;;;;;;-144.73;100.00;54727.91;5024101;28;20049;-74
2024/01/04 03:23:02;;;;;;;3.00;1.17;;;;;;;-144.73;100.00;54736.13;5024723;28;20042;-75
2024/01/04 03:25:28;;;;;;;3.45;0.93;;;;;;;-144.73;100.00;54713.53;5031969;28;20020;-75
2024/01/04 03:27:56;;;;;;;3.05;1.10;;;;;;;-144.73;100.00;54727.91;5024373;28;20044;-75
2024/01/04 03:30:22;;;;;;;4.10;1.25;;;;;;;-144.73;100.00;54727.91;5031479;28;20088;-76
2024/01/04 03:32:47;;;;;;;2.63;0.85;;;;;;;-144.73;100.00;54760.75;5030230;28;20021;-74
2024/01/04 03:35:12;;;;;;;3.75;0.90;;;;;;;-144.73;100.00;54715.59;5029846;28;20396;-75
2024/01/04 03:37:38;;;;;;;3.50;0.80;;;;;;;-144.73;100.00;54723.81;5029277;28;20472;-74
2024/01/04 03:40:04;;;;;;;2.72;0.85;;;;;;;-144.73;100.00;54736.13;5031622;28;20025;-76
2024/01/04 03:42:30;;;;;;;3.08;1.30;;;;;;;-144.73;100.00;54715.59;5030382;28;20029;-74
2024/01/04 03:44:55;;;;;;;4.90;1.30;;;;;;;-144.73;100.00;54723.81;5028331;28;20025;-75
2024/01/04 03:47:21;;;;;;;6.35;1.35;;;;;;;-144.73;100.00;54752.53;5031532;28;20067;-76
2024/01/04 03:49:46;;;;;;;3.75;1.40;;;;;;;-144.73;100.00;54719.69;5030306;28;20041;-75
2024/01/04 03:52:12;;;;;;;7.50;1.63;;;;;;;-144.73;100.00;54690.97;5030121;28;20032;-75
2024/01/04 03:54:37;;;;;;;3.42;1.40;;;;;;;-144.73;100.00;54721.75;5030989;28;20029;-75
2024/01/04 03:57:03;;;;;;;3.20;1.30;;;;;;;-144.73;100.00;54705.31;5028454;28;20432;-75
2024/01/04 03:59:28;;;;;;;5.35;1.42;;;;;;;-144.73;100.00;54719.69;5029870;28;20093;-75
2024/01/04 04:01:53;;;;;;;4.82;1.02;;;;;;;-144.73;100.00;54760.75;5030953;28;20108;-76
2024/01/04 04:04:19;;;;;;;3.35;1.60;;;;;;;-144.73;100.00;54744.31;5029893;28;20057;-74
2024/01/04 04:06:45;;;;;;;3.60;1.42;;;;;;;-144.73;100.00;54752.53;5031317;28;20018;-75
2024/01/04 04:09:10;;;;;;;4.55;2.03;;;;;;;-144.73;100.00;54732.00;5030280;28;20034;-75
2024/01/04 04:11:35;;;;;;;7.00;1.70;;;;;;;-144.73;100.00;54715.59;5027742;28;20013;-74
2024/01/04 04:14:01;;;;;;;10.25;1.65;;;;;;;-144.73;100.00;54715.59;5027111;28;20033;-74
2024/01/04 04:16:29;;;;;;;3.67;1.55;;;;;;;-144.73;100.00;54713.53;5030854;28;20025;-75
2024/01/04 04:18:55;;;;;;;4.28;1.77;;;;;;;-144.73;100.00;54727.91;5026822;28;20040;-75
2024/01/04 04:21:21;;;;;;;2.33;1.58;;;;;;;-144.73;100.00;54732.00;5030546;28;20014;-76
2024/01/04 04:23:49;;;;;;;6.30;1.92;;;;;;;-144.73;100.00;54719.69;5029994;28;20125;-75
2024/01/04 04:26:22;;;;;;;3.58;1.52;;;;;;;-144.73;100.00;54736.13;5030784;28;20026;-75
2024/01/04 04:28:51;;;;;;;4.00;1.45;;;;;;;-144.73;100.00;54727.91;5030035;28;20030;-75
2024/01/04 04:31:17;;;;;;;2.58;1.23;;;;;;;-144.73;100.00;54690.97;5030298;28;20025;-76
2024/01/04 04:33:47;;;;;;;5.63;1.33;;;;;;;-144.73;100.00;54703.28;5030087;28;20092;-76
2024/01/04 04:36:13;;;;;;;9.77;1.70;;;;;;;-144.73;100.00;54711.47;5026437;28;20168;-75
2024/01/04 04:38:42;;;;;;;3.80;1.60;;;;;;;-144.73;100.00;54736.13;5030177;28;20160;-76
2024/01/04 04:41:07;;;;;;;3.55;1.70;;;;;;;-144.73;100.00;54725.84;5030660;28;20032;-76
2024/01/04 04:43:34;;;;;;;2.67;1.60;;;;;;;-144.73;100.00;54744.31;5012563;28;20030;-76
2024/01/04 04:46:01;;;;;;;4.57;1.20;;;;;;;-144.73;100.00;54715.59;5011122;28;20057;-75
2024/01/04 04:48:26;;;;;;;2.60;1.20;;;;;;;-144.73;100.00;54682.75;5007833;28;20045;-76
2024/01/04 04:50:53;;;;;;;2.75;1.63;;;;;;;-144.73;100.00;54695.06;5011581;28;20034;-75
2024/01/04 04:53:18;;;;;;;7.45;1.63;;;;;;;-144.73;100.00;54703.28;5025120;28;20052;-75
2024/01/04 04:55:44;;;;;;;2.88;1.50;;;;;;;-144.73;100.00;54711.47;5030048;28;20400;-76
2024/01/04 04:58:09;;;;;;;3.75;1.55;;;;;;;-144.73;100.00;54711.47;5027643;28;20084;-76
2024/01/04 05:00:35;;;;;;;5.13;1.48;;;;;;;-144.73;100.00;54754.59;5027866;28;20075;-76
2024/01/04 05:03:00;;;;;;;5.72;1.63;;;;;;;-144.73;100.00;54707.38;5026372;28;20044;-76
2024/01/04 05:05:26;;;;;;;1.85;1.38;;;;;;;-144.73;100.00;54740.22;5030098;28;20091;-76
2024/01/04 05:07:51;;;;;;;1.88;1.50;;;;;;;-144.73;100.00;54715.59;5031635;28;20041;-76
2024/01/04 05:10:17;;;;;;;5.57;2.17;;;;;;;-144.73;100.00;54719.69;5029618;28;20029;-77
2024/01/04 05:12:42;;;;;;;2.67;1.80;;;;;;;-144.73;100.00;54703.28;5029246;28;20071;-76
2024/01/04 05:15:08;;;;;;;4.10;2.20;;;;;;;-144.73;100.00;54723.81;5024709;28;20032;-76
2024/01/04 05:17:33;;;;;;;6.00;2.72;;;;;;;-144.73;100.00;54744.31;5028679;28;20025;-76
2024/01/04 05:19:59;;;;;;;4.57;2.80;;;;;;;-144.73;100.00;54707.38;5025894;28;20025;-76
2024/01/04 05:22:24;;;;;;;3.88;3.28;;;;;;;-144.73;100.00;54703.28;5021725;28;20116;-75
2024/01/04 05:24:49;;;;;;;7.65;4.72;;;;;;;-144.73;100.00;54695.06;5015678;28;20065;-76
2024/01/04 05:27:15;;;;;;;9.27;5.60;;;;;;;-144.73;100.00;54678.63;5011163;28;20037;-75
2024/01/04 05:29:40;;;;;;;11.63;6.78;;;;;;;-144.73;100.00;54740.22;5009629;28;20034;-76
2024/01/04 05:32:05;;;;;;;10.68;7.53;;;;;;;-144.73;100.00;54707.38;5021087;28;20037;-76
2024/01/04 05:34:32;;;;;;;9.45;6.53;;;;;;;-144.73;100.00;54711.47;5029170;28;20034;-76
2024/01/04 05:37:00;;;;;;;11.90;7.50;;;;;;;-144.73;100.00;54719.69;5022343;28;20080;-76
2024/01/04 05:39:26;;;;;;;11.10;7.82;;;;;;;-144.73;100.00;54715.59;5028698;28;20033;-76
2024/01/04 05:41:52;;;;;;;10.25;7.93;;;;;;;-144.73;100.00;54723.81;5029350;28;20079;-75
2024/01/04 05:44:17;;;;;;;10.68;8.35;;;;;;;-144.73;100.00;54715.59;5028615;28;20121;-75
2024/01/04 05:46:43;;;;;;;11.77;8.60;;;;;;;-144.73;100.00;54727.91;5030031;28;20025;-75
2024/01/04 05:49:08;;;;;;;11.48;7.53;;;;;;;-144.73;100.00;54725.84;5029312;28;20056;-76
2024/01/04 05:51:34;;;;;;;11.63;7.95;;;;;;;-144.73;100.00;54732.00;5029897;28;20018;-75
2024/01/04 05:53:59;;;;;;;11.20;7.35;;;;;;;-144.73;100.00;54711.47;5029330;28;20513;-76
2024/01/04 05:56:24;;;;;;;14.25;8.15;;;;;;;-144.73;100.00;54711.47;5028443;28;20025;-75
2024/01/04 05:58:50;;;;;;;11.63;7.25;;;;;;;-144.73;100.00;54707.38;5045773;28;20037;-75
2024/01/04 06:01:15;;;;;;;10.90;7.72;;;;;;;-144.73;100.00;54686.84;5029167;28;20045;-75
2024/01/04 06:03:41;;;;;;;9.95;7.45;;;;;;;-144.73;100.00;54723.81;5028650;28;20029;-75
2024/01/04 06:06:07;;;;;;;11.65;6.80;;;;;;;-144.73;100.00;54732.00;5026301;28;20056;-75
2024/01/04 06:08:32;;;;;;;8.23;6.65;;;;;;;-144.73;100.00;54740.22;5028655;28;20039;-75
2024/01/04 06:10:58;;;;;;;8.13;6.50;;;;;;;-144.73;100.00;54711.47;5026446;28;20484;-75
2024/01/04 06:13:26;;;;;;;13.00;7.57;;;;;;;-144.73;100.00;54695.06;5027387;28;20094;-75
2024/01/04 06:15:54;;;;;;;9.63;6.65;;;;;;;-144.73;100.00;54701.22;5019063;28;20071;-75
2024/01/04 06:18:20;;;;;;;7.05;5.13;;;;;;;-144.73;100.00;54740.22;5027686;28;20057;-76
2024/01/04 06:20:47;;;;;;;11.85;6.45;;;;;;;-144.73;100.00;54756.66;5029270;28;20022;-76
2024/01/04 06:23:12;;;;;;;7.00;5.35;;;;;;;-144.73;100.00;54711.47;5031767;28;20112;-76
2024/01/04 06:25:38;;;;;;;5.07;4.40;;;;;;;-144.73;100.00;54709.44;5033043;28;20163;-76
2024/01/04 06:28:03;;;;;;;9.07;5.78;;;;;;;-144.73;100.00;54754.59;5032109;28;20051;-76
2024/01/04 06:30:29;;;;;;;8.90;4.80;;;;;;;-144.73;100.00;54719.69;5032701;28;20083;-75
2024/01/04 06:32:54;;;;;;;7.55;4.00;;;;;;;-144.73;100.00;54744.31;5032182;28;20041;-75
2024/01/04 06:35:20;;;;;;;9.13;3.45;;;;;;;-144.73;100.00;54719.69;5032869;28;20037;-75
2024/01/04 06:37:45;;;;;;;5.17;4.13;;;;;;;-144.73;100.00;54727.91;5027575;28;20112;-75
2024/01/04 06:40:11;;;;;;;8.23;3.72;;;;;;;-144.73;100.00;54760.75;5026962;28;20022;-75
2024/01/04 06:42:37;;;;;;;4.85;3.85;;;;;;;-144.73;100.00;54699.16;5031156;28;20029;-75
2024/01/04 06:45:04;;;;;;;7.50;4.20;;;;;;;-144.73;100.00;54748.44;5033201;28;20053;-74
2024/01/04 06:47:30;;;;;;;6.55;4.13;;;;;;;-144.73;100.00;54727.91;5032478;28;20053;-74
2024/01/04 06:49:55;;;;;;;6.47;3.40;;;;;;;-144.73;100.00;54740.22;5032700;28;20064;-74
2024/01/04 06:52:20;;;;;;;8.13;3.40;;;;;;;-144.73;100.00;54711.47;5024880;28;20052;-74
2024/01/04 06:54:46;;;;;;;5.23;3.37;;;;;;;-144.73;100.00;54740.22;5012744;28;20068;-75
2024/01/04 06:57:12;;;;;;;6.37;3.80;;;;;;;-144.73;100.00;54711.47;5013158;28;20171;-74
2024/01/04 06:59:37;;;;;;;5.50;3.77;;;;;;;-144.73;100.00;54699.16;5027259;28;20042;-75
2024/01/04 07:02:05;;;;;;;7.45;3.50;;;;;;;-144.73;100.00;54711.47;5017932;28;20056;-75
2024/01/04 07:04:31;;;;;;;3.70;3.00;;;;;;;-144.73;100.00;54686.84;5030986;28;20077;-76
2024/01/04 07:06:57;;;;;;;6.43;3.20;;;;;;;-144.73;100.00;54748.44;5021993;28;20026;-75
2024/01/04 07:09:22;;;;;;;5.33;3.23;;;;;;;-144.73;100.00;54719.69;5031560;28;20152;-76
2024/01/04 07:11:47;;;;;;;4.23;3.10;;;;;;;-144.73;100.00;54719.69;5022967;28;20076;-75
2024/01/04 07:14:13;;;;;;;9.50;3.87;;;;;;;-144.73;100.00;54707.38;5029173;28;20531;-76
2024/01/04 07:16:45;;;;;;;6.73;3.47;;;;;;;-144.73;100.00;54715.59;5031925;28;20032;-76
2024/01/04 07:19:11;;;;;;;7.50;3.27;;;;;;;-144.73;100.00;54713.53;5022816;28;20038;-76
2024/01/04 07:21:37;;;;;;;4.57;3.00;;;;;;;-144.73;100.00;54707.38;5031385;28;20025;-76
2024/01/04 07:24:02;;;;;;;5.20;2.90;;;;;;;-144.73;100.00;54707.38;5031553;28;20068;-75
2024/01/04 07:26:28;;;;;;;3.95;2.70;;;;;;;-144.73;100.00;54699.16;5031973;28;20086;-76
2024/01/04 07:28:53;;;;;;;8.57;2.85;;;;;;;-144.73;100.00;54756.66;5031645;28;20041;-76
2024/01/04 07:31:19;;;;;;;5.30;2.70;;;;;;;-144.73;100.00;54727.91;5031872;28;20026;-75
2024/01/04 07:33:44;;;;;;;8.40;2.83;;;;;;;-144.73;100.00;54756.66;5012717;28;20042;-74
2024/01/04 07:36:10;;;;;;;5.22;2.72;;;;;;;-144.73;100.00;54695.06;5009469;28;20037;-75
2024/01/04 07:38:35;;;;;;;4.65;2.72;;;;;;;-144.73;100.00;54719.69;5009354;28;20042;-75
2024/01/04 07:41:00;;;;;;;6.00;2.65;;;;;;;-144.73;100.00;54717.66;5015936;28;20029;-76
2024/01/04 07:43:28;;;;;;;7.10;2.20;;;;;;;-144.73;100.00;54736.13;5028214;28;20060;-75
2024/01/04 07:45:53;;;;;;;6.10;2.10;;;;;;;-144.73;100.00;54723.81;5028692;28;20030;-75
2024/01/04 07:48:18;;;;;;;3.65;1.80;;;;;;;-144.73;100.00;54719.69;5029053;28;20126;-75
2024/01/04 07:50:44;;;;;;;4.43;2.17;;;;;;;-144.73;100.00;54748.44;5031347;28;20018;-75
2024/01/04 07:53:09;;;;;;;2.15;1.70;;;;;;;-144.73;100.00;54707.38;5024919;28;20033;-75
2024/01/04 07:55:35;;;;;;;3.67;2.30;;;;;;;-144.73;100.00;54748.44;5030451;28;20033;-76
2024/01/04 07:58:00;;;;;;;6.47;2.17;;;;;;;-144.73;100.00;54715.59;5027037;28;20038;-75
2024/01/04 08:00:25;;;;;;;3.65;2.00;;;;;;;-144.73;100.00;54744.31;5024745;28;20025;-75
2024/01/04 08:02:51;;;;;;;4.13;2.10;;;;;;;-144.73;100.00;54715.59;5019207;28;20040;-75
2024/01/04 08:05:17;;;;;;;4.65;2.40;;;;;;;-144.73;100.00;54760.75;5031281;28;20037;-75
2024/01/04 08:07:46;;;;;;;4.05;2.17;;;;;;;-144.73;100.00;54736.13;5030246;28;20392;-76
2024/01/04 08:10:11;;;;;;;6.90;2.50;;;;;;;-144.73;100.00;54695.06;5031037;28;20040;-76
2024/01/04 08:12:40;;;;;;;6.18;2.20;;;;;;;-144.73;100.00;54727.91;5029915;28;20022;-74
2024/01/04 08:15:08;;;;;;;3.55;2.10;;;;;;;-144.73;100.00;54713.53;5020780;28;20029;-74
2024/01/04 08:17:33;;;;;;;7.22;2.38;;;;;;;-144.73;100.00;54711.47;5024832;28;20029;-74
2024/01/04 08:19:59;;;;;;;5.03;2.03;;;;;;;-144.73;100.00;54732.00;5031164;28;20029;-73
2024/01/04 08:22:25;;;;;;;3.08;1.80;;;;;;;-144.73;100.00;54744.31;5029328;28;20021;-74
2024/01/04 08:24:50;;;;;;;10.55;2.70;;;;;;;-144.73;100.00;54719.69;5030168;28;20040;-74
2024/01/04 08:27:19;;;;;;;6.45;2.17;;;;;;;-144.73;100.00;54674.53;5028661;28;20029;-74
2024/01/04 08:29:48;;;;;;;3.83;1.85;;;;;;;-144.73;100.00;54693.00;5025540;28;20095;-75
2024/01/04 08:32:17;;;;;;;5.75;1.70;;;;;;;-144.73;100.00;54740.22;5016336;28;20025;-69
2024/01/04 08:34:43;;;;;;;6.18;1.77;;;;;;;-144.73;100.00;54732.00;5035284;28;20034;-70
2024/01/04 08:37:08;;;;;;;5.05;2.05;;;;;;;-144.73;100.00;54715.59;5009695;28;20030;-69
2024/01/04 08:39:34;;;;;;;6.43;2.17;;;;;;;-144.73;100.00;54690.97;5014836;28;21375;-69
2024/01/04 08:42:00;;;;;;;11.45;2.40;;;;;;;-144.73;100.00;54695.06;5018537;28;20026;-70
2024/01/04 08:44:25;;;;;;;5.68;2.08;;;;;;;-144.73;100.00;54695.06;5013787;28;20030;-69
2024/01/04 08:46:52;;;;;;;2.03;1.80;;;;;;;-144.73;100.00;54756.66;5012757;28;20105;-70
2024/01/04 08:49:18;;;;;;;3.72;1.50;;;;;;;-144.73;100.00;54715.59;5015838;28;20470;-69
2024/01/04 08:51:43;;;;;;;3.85;1.75;;;;;;;-144.73;100.00;54723.81;5028054;28;20021;-71
2024/01/04 08:54:09;;;;;;;3.53;1.85;;;;;;;-144.73;100.00;54711.47;5026535;28;20053;-69
2024/01/04 08:56:35;;;;;;;2.70;1.65;;;;;;;-144.73;100.00;54732.00;5029117;28;20022;-69
2024/01/04 08:59:02;;;;;;;2.95;1.67;;;;;;;-144.73;100.00;54703.28;5030516;28;20407;-70
2024/01/04 09:01:28;;;;;;;6.05;1.75;;;;;;;-144.73;100.00;54744.31;5030307;28;20030;-70
2024/01/04 09:03:54;;;;;;;5.00;1.77;;;;;;;-144.73;100.00;54703.28;5029795;28;20037;-70
2024/01/04 09:06:20;;;;;;;4.35;1.90;;;;;;;-144.73;100.00;54723.81;5024887;28;20026;-69
2024/01/04 09:08:46;;;;;;;6.38;1.80;;;;;;;-144.73;100.00;54748.44;5029410;28;20046;-70
2024/01/04 09:11:11;;;;;;;3.85;1.80;;;;;;;-144.73;100.00;54740.22;5047540;28;20127;-67
2024/01/04 09:13:37;;;;;;;3.50;1.60;;;;;;;-144.73;100.00;54695.06;5023769;28;20069;-68
2024/01/04 09:16:03;;;;;;;4.32;1.65;;;;;;;-144.73;100.00;54723.81;5024852;28;20437;-69
2024/01/04 09:18:28;;;;;;;4.00;1.80;;;;;;;-144.73;100.00;54740.22;5028971;28;20042;-68
2024/01/04 09:20:53;;;;;;;5.13;1.63;;;;;;;-144.73;100.00;54715.59;5030548;28;20155;-70
2024/01/04 09:23:19;;;;;;;3.67;1.65;;;;;;;-144.73;100.00;54719.69;5024027;28;20088;-71
2024/01/04 09:25:45;;;;;;;6.78;2.22;;;;;;;-144.73;100.00;54748.44;5030847;28;20056;-71
2024/01/04 09:28:10;;;;;;;4.47;1.75;;;;;;;-144.73;100.00;54752.53;5029885;28;20049;-69
2024/01/04 09:30:36;;;;;;;6.35;1.63;;;;;;;-144.73;100.00;54744.31;5030489;28;20059;-71
2024/01/04 09:33:02;;;;;;;5.13;1.52;;;;;;;-144.73;100.00;54695.06;5030088;28;20060;-69
2024/01/04 09:35:27;;;;;;;5.45;1.67;;;;;;;-144.73;100.00;54707.38;5030428;28;20511;-69
2024/01/04 09:37:52;;;;;;;4.28;1.52;;;;;;;-144.73;100.00;54736.13;5025953;28;20048;-68
2024/01/04 09:40:21;;;;;;;5.75;1.70;;;;;;;-144.73;100.00;54711.47;5030796;28;20121;-70
2024/01/04 09:42:47;;;;;;;4.95;1.33;;;;;;;-144.73;100.00;54715.59;5019396;28;20064;-69
2024/01/04 09:45:15;;;;;;;4.40;1.80;;;;;;;-144.73;100.00;54715.59;5011775;28;20438;-69
2024/01/04 09:47:42;;;;;;;5.20;1.83;;;;;;;-144.73;100.00;54713.53;5011101;28;20034;-68
2024/01/04 09:50:11;;;;;;;4.53;1.45;;;;;;;-144.73;100.00;54711.47;5011483;28;20022;-70
2024/01/04 09:52:39;;;;;;;2.35;1.35;;;;;;;-144.73;100.00;54699.16;5020043;28;20465;-69
2024/01/04 09:55:07;;;;;;;2.85;1.67;;;;;;;-144.73;100.00;54727.91;5027331;28;20026;-69
2024/01/04 09:57:33;;;;;;;5.18;1.92;;;;;;;-144.73;100.00;54715.59;5029338;28;20056;-69
2024/01/04 09:59:59;;;;;;;5.68;1.75;;;;;;;-144.73;100.00;54727.91;5034130;28;20025;-70
2024/01/04 10:02:24;;;;;;;6.30;1.77;;;;;;;-144.73;100.00;54732.00;5033107;28;20021;-68
2024/01/04 10:04:51;;;;;;;2.45;1.55;;;;;;;-144.73;100.00;54717.66;5029084;28;20045;-69
2024/01/04 10:07:22;;;;;;;3.72;1.92;;;;;;;-144.73;100.00;54690.97;5046259;28;20033;-70
2024/01/04 10:10:12;;;;;;;12.00;1.83;;;;;;;-144.73;100.00;54723.81;5033080;28;20120;-69
2024/01/04 10:12:42;;;;;;;3.15;1.70;;;;;;;-144.73;100.00;54727.91;5031066;28;20041;-68
2024/01/04 10:15:11;;;;;;;5.68;1.67;;;;;;;-144.73;100.00;54707.38;5033702;28;20024;-69
2024/01/04 10:17:37;;;;;;;5.65;1.80;;;;;;;-144.73;100.00;54707.38;5032893;28;20021;-68
2024/01/04 10:20:04;;;;;;;6.97;2.08;;;;;;;-144.73;100.00;54707.38;5033791;28;20083;-70
2024/01/04 10:22:29;;;;;;;2.35;1.85;;;;;;;-144.73;100.00;54727.91;5031803;28;20048;-69
2024/01/04 10:25:06;;;;;;;4.13;1.85;;;;;;;-144.73;100.00;54699.16;5033489;28;20025;-69
2024/01/04 10:27:31;;;;;;;6.90;2.25;;;;;;;-144.73;100.00;54727.91;5030070;28;20033;-68
2024/01/04 10:30:05;;;;;;;6.28;2.42;;;;;;;-144.73;100.00;54719.69;5032445;28;20025;-70
2024/01/04 10:32:32;;;;;;;3.67;2.00;;;;;;;-144.73;100.00;54746.38;5032332;28;20337;-70
2024/01/04 10:35:08;;;;;;;3.80;1.85;;;;;;;-144.73;100.00;54703.28;5033229;28;20064;-69
2024/01/04 10:37:34;;;;;;;4.95;2.08;;;;;;;-144.73;100.00;54719.69;5026475;28;20444;-68
2024/01/04 10:40:03;;;;;;;5.07;2.20;;;;;;;-144.73;100.00;54723.81;5028659;28;20030;-68
2024/01/04 10:42:29;;;;;;;7.95;2.42;;;;;;;-144.73;100.00;54740.22;5048281;28;20025;-69
2024/01/04 10:44:55;;;;;;;5.72;2.20;;;;;;;-144.73;100.00;54748.44;5032940;28;20045;-69
2024/01/04 10:47:21;;;;;;;3.55;1.58;;;;;;;-144.73;100.00;54719.69;5032421;28;20025;-69
2024/01/04 10:49:48;;;;;;;2.20;1.40;;;;;;;-144.73;100.00;54695.06;5031451;28;20033;-69
2024/01/04 10:52:19;;;;;;;3.35;1.50;;;;;;;-144.73;100.00;54744.31;5032585;28;20057;-69
2024/01/04 10:54:45;;;;;;;3.78;1.58;;;;;;;-144.73;100.00;54711.47;5032108;28;20025;-70
2024/01/04 10:57:12;;;;;;;8.02;1.95;;;;;;;-144.73;100.00;54713.53;5024836;28;20028;-68
2024/01/04 10:59:39;;;;;;;3.17;1.90;;;;;;;-144.73;100.00;54721.75;5032276;28;20034;-69
2024/01/04 11:02:07;;;;;;;6.05;1.95;;;;;;;-144.73;100.00;54740.22;5029549;28;20018;-69
2024/01/04 11:04:36;;;;;;;4.13;1.63;;;;;;;-144.73;100.00;54725.84;5032290;28;20033;-70